createdAt,value
2022-11-26T00:02:17.780Z,6.12
2022-11-26T00:04:45.332Z,6.22
2022-11-26T00:07:13.155Z,6.12
2022-11-26T00:09:40.061Z,6.06
2022-11-26T00:12:17.398Z,6.13
2022-11-26T00:14:47.479Z,6.20
2022-11-26T00:17:14.871Z,6.09
2022-11-26T00:19:50.635Z,6.05
2022-11-26T00:22:27.466Z,5.99
2022-11-26T00:24:59.422Z,6.09
2022-11-26T00:27:30.489Z,6.14
2022-11-26T00:29:57.665Z,6.11
2022-11-26T00:32:25.453Z,6.05
2022-11-26T00:34:54.246Z,6.01
2022-11-26T00:37:26.111Z,5.94
2022-11-26T00:39:53.119Z,6.05
2022-11-26T00:42:20.071Z,6.11
2022-11-26T00:44:46.896Z,6.08
2022-11-26T00:47:13.604Z,5.97
2022-11-26T00:49:40.230Z,5.97
2022-11-26T00:52:21.106Z,5.95
2022-11-26T00:54:50.410Z,5.92
2022-11-26T00:57:17.127Z,5.89
2022-11-26T00:59:48.409Z,4.43
2022-11-26T01:02:15.754Z,3.58
2022-11-26T01:04:42.505Z,4.58
2022-11-26T01:07:10.969Z,4.82
2022-11-26T01:09:39.052Z,5.03
2022-11-26T01:12:07.006Z,5.05
2022-11-26T01:14:34.052Z,5.00
2022-11-26T01:17:00.931Z,5.09
2022-11-26T01:19:27.840Z,5.12
2022-11-26T01:21:54.486Z,4.98
2022-11-26T01:24:21.199Z,4.87
2022-11-26T01:26:47.956Z,5.10
2022-11-26T01:29:16.611Z,5.19
2022-11-26T01:31:44.476Z,5.23
2022-11-26T01:34:11.704Z,5.16
2022-11-26T01:36:39.652Z,5.11
2022-11-26T01:39:06.233Z,4.28
2022-11-26T01:41:39.116Z,4.29
2022-11-26T01:44:08.507Z,4.37
2022-11-26T01:46:36.786Z,4.52
2022-11-26T01:49:17.743Z,4.02
2022-11-26T01:51:49.484Z,4.74
2022-11-26T01:54:18.777Z,4.92
2022-11-26T01:56:50.525Z,4.94
2022-11-26T01:59:20.714Z,4.62
2022-11-26T02:01:49.183Z,4.19
2022-11-26T02:04:21.962Z,4.77
2022-11-26T02:06:49.526Z,5.10
2022-11-26T02:09:16.253Z,5.27
2022-11-26T02:11:43.382Z,5.35
2022-11-26T02:14:36.774Z,5.34
2022-11-26T02:17:03.946Z,5.13
2022-11-26T02:19:59.085Z,5.12
2022-11-26T02:22:25.690Z,5.44
2022-11-26T02:25:07.775Z,5.63
2022-11-26T02:27:34.390Z,5.79
2022-11-26T02:30:01.280Z,5.26
2022-11-26T02:32:48.338Z,5.65
2022-11-26T02:35:26.877Z,5.58
2022-11-26T02:38:02.186Z,5.32
2022-11-26T02:40:29.056Z,4.80
2022-11-26T02:42:55.858Z,5.45
2022-11-26T02:45:24.460Z,5.58
2022-11-26T02:47:53.585Z,5.73
2022-11-26T02:50:23.142Z,5.79
2022-11-26T02:52:51.930Z,5.54
2022-11-26T02:55:20.059Z,5.09
2022-11-26T02:57:50.764Z,4.91
2022-11-26T03:00:18.177Z,4.94
2022-11-26T03:02:44.936Z,5.22
2022-11-26T03:05:13.658Z,5.47
2022-11-26T03:07:40.395Z,5.75
2022-11-26T03:10:07.987Z,5.75
2022-11-26T03:12:34.696Z,5.26
2022-11-26T03:15:01.427Z,5.78
2022-11-26T03:17:28.101Z,5.69
2022-11-26T03:19:55.789Z,5.79
2022-11-26T03:22:22.341Z,5.89
2022-11-26T03:24:49.116Z,6.08
2022-11-26T03:27:15.861Z,6.29
2022-11-26T03:29:42.638Z,5.76
2022-11-26T03:32:09.456Z,6.09
2022-11-26T03:34:36.548Z,5.88
2022-11-26T03:37:03.500Z,5.93
2022-11-26T03:39:30.141Z,5.32
2022-11-26T03:41:56.805Z,5.84
2022-11-26T03:44:23.388Z,5.81
2022-11-26T03:46:50.049Z,6.16
2022-11-26T03:49:16.781Z,6.14
2022-11-26T03:51:43.415Z,5.92
2022-11-26T03:54:10.553Z,5.26
2022-11-26T03:56:37.237Z,6.16
2022-11-26T03:59:05.216Z,5.96
2022-11-26T04:01:32.393Z,6.00
2022-11-26T04:03:59.156Z,6.04
2022-11-26T04:06:26.122Z,6.22
2022-11-26T04:08:52.940Z,6.35
2022-11-26T04:11:25.227Z,6.16
2022-11-26T04:13:52.061Z,6.42
2022-11-26T04:16:23.367Z,6.30
2022-11-26T04:18:50.092Z,6.22
2022-11-26T04:21:17.737Z,6.01
2022-11-26T04:23:44.409Z,6.08
2022-11-26T04:26:11.153Z,6.51
2022-11-26T04:28:37.902Z,6.00
2022-11-26T04:31:04.712Z,5.94
2022-11-26T04:33:31.573Z,6.25
2022-11-26T04:35:58.280Z,6.50
2022-11-26T04:38:26.125Z,6.47
2022-11-26T04:40:53.234Z,6.68
2022-11-26T04:43:19.964Z,6.60
2022-11-26T04:45:47.463Z,6.62
2022-11-26T04:48:14.401Z,6.41
2022-11-26T04:50:41.368Z,6.51
2022-11-26T04:53:08.215Z,6.44
2022-11-26T04:55:35.207Z,6.80
2022-11-26T04:58:02.025Z,6.60
2022-11-26T05:00:28.813Z,6.68
2022-11-26T05:02:57.185Z,6.88
2022-11-26T05:05:23.992Z,6.86
2022-11-26T05:07:50.848Z,6.94
2022-11-26T05:10:17.654Z,7.01
2022-11-26T05:12:44.393Z,7.09
2022-11-26T05:15:11.283Z,7.03
2022-11-26T05:17:38.157Z,7.32
2022-11-26T05:20:05.560Z,7.13
2022-11-26T05:22:32.428Z,7.37
2022-11-26T05:24:59.200Z,7.33
2022-11-26T05:27:27.360Z,7.15
2022-11-26T05:29:54.105Z,7.44
2022-11-26T05:32:20.754Z,7.32
2022-11-26T05:34:47.506Z,7.22
2022-11-26T05:37:14.271Z,7.29
2022-11-26T05:39:41.201Z,7.39
2022-11-26T05:42:09.555Z,7.43
2022-11-26T05:44:37.592Z,7.44
2022-11-26T05:47:04.889Z,7.38
2022-11-26T05:49:31.557Z,7.51
2022-11-26T05:51:58.193Z,7.53
2022-11-26T05:54:24.790Z,7.52
2022-11-26T05:56:55.587Z,7.46
2022-11-26T05:59:26.455Z,7.51
2022-11-26T06:01:53.296Z,7.35
2022-11-26T06:04:19.982Z,7.44
2022-11-26T06:06:46.918Z,7.58
2022-11-26T06:09:14.124Z,7.46
2022-11-26T06:11:40.804Z,7.48
2022-11-26T06:14:07.483Z,7.36
2022-11-26T06:16:34.775Z,7.10
2022-11-26T06:19:01.548Z,7.44
2022-11-26T06:21:28.423Z,7.40
2022-11-26T06:23:59.358Z,7.62
2022-11-26T06:26:26.789Z,7.34
2022-11-26T06:28:53.476Z,7.61
2022-11-26T06:31:20.239Z,7.63
2022-11-26T06:33:47.056Z,7.69
2022-11-26T06:36:14.926Z,7.69
2022-11-26T06:38:41.973Z,7.76
2022-11-26T06:41:08.921Z,7.72
2022-11-26T06:43:35.846Z,7.83
2022-11-26T06:46:03.679Z,7.89
2022-11-26T06:48:30.502Z,7.69
2022-11-26T06:50:57.499Z,8.04
2022-11-26T06:53:24.275Z,7.57
2022-11-26T06:55:51.077Z,7.76
2022-11-26T06:58:17.794Z,7.90
2022-11-26T07:00:44.423Z,7.74
2022-11-26T07:03:11.176Z,7.83
2022-11-26T07:05:38.019Z,7.73
2022-11-26T07:08:04.921Z,7.81
2022-11-26T07:10:31.747Z,8.11
2022-11-26T07:12:58.692Z,7.90
2022-11-26T07:15:25.422Z,7.85
2022-11-26T07:17:52.127Z,7.54
2022-11-26T07:20:18.923Z,7.95
2022-11-26T07:22:45.840Z,8.12
2022-11-26T07:25:13.088Z,8.08
2022-11-26T07:27:40.078Z,8.25
2022-11-26T07:30:07.321Z,8.14
2022-11-26T07:32:34.369Z,8.08
2022-11-26T07:35:02.713Z,8.45
2022-11-26T07:37:29.400Z,8.27
2022-11-26T07:39:57.349Z,8.61
2022-11-26T07:42:24.200Z,8.57
2022-11-26T07:44:51.234Z,8.75
2022-11-26T07:47:17.942Z,8.99
2022-11-26T07:49:44.607Z,8.90
2022-11-26T07:52:11.273Z,9.08
2022-11-26T07:54:38.432Z,8.93
2022-11-26T07:57:05.670Z,9.05
2022-11-26T07:59:32.881Z,9.21
2022-11-26T08:01:59.617Z,9.15
2022-11-26T08:04:26.961Z,9.39
2022-11-26T08:06:53.684Z,9.38
2022-11-26T08:09:20.426Z,9.47
2022-11-26T08:11:47.128Z,9.59
2022-11-26T08:14:14.053Z,9.73
2022-11-26T08:16:41.040Z,9.64
2022-11-26T08:19:11.097Z,9.80
2022-11-26T08:21:38.779Z,9.71
2022-11-26T08:24:06.095Z,9.85
2022-11-26T08:26:37.168Z,9.85
2022-11-26T08:29:05.311Z,9.99
2022-11-26T08:31:32.042Z,10.05
2022-11-26T08:33:59.939Z,9.77
2022-11-26T08:36:27.506Z,9.97
2022-11-26T08:38:54.398Z,10.01
2022-11-26T08:41:21.649Z,10.05
2022-11-26T08:46:36.198Z,9.99
2022-11-26T08:49:04.277Z,9.80
2022-11-26T08:51:31.117Z,9.33
2022-11-26T08:53:57.842Z,10.19
2022-11-26T08:56:24.943Z,10.02
2022-11-26T08:58:51.982Z,9.70
2022-11-26T09:01:20.522Z,10.09
2022-11-26T09:03:51.399Z,10.34
2022-11-26T09:06:18.751Z,10.43
2022-11-26T09:09:05.838Z,10.09
2022-11-26T09:11:33.653Z,10.17
2022-11-26T09:14:00.633Z,10.63
2022-11-26T09:16:27.715Z,10.34
2022-11-26T09:18:54.498Z,10.60
2022-11-26T09:21:21.646Z,10.88
2022-11-26T09:23:48.456Z,10.56
2022-11-26T09:26:15.247Z,10.91
2022-11-26T09:28:42.041Z,10.47
2022-11-26T09:31:08.808Z,10.54
2022-11-26T09:33:35.579Z,10.55
2022-11-26T09:36:06.269Z,10.44
2022-11-26T09:38:33.473Z,10.82
2022-11-26T09:41:19.011Z,10.20
2022-11-26T09:43:53.525Z,10.35
2022-11-26T09:46:24.994Z,11.02
2022-11-26T09:48:54.647Z,11.37
2022-11-26T09:51:21.753Z,11.44
2022-11-26T09:53:50.635Z,11.64
2022-11-26T09:56:21.435Z,11.05
2022-11-26T09:59:01.828Z,10.92
2022-11-26T10:01:30.696Z,11.05
2022-11-26T10:03:57.548Z,10.43
2022-11-26T10:06:33.281Z,10.75
2022-11-26T10:09:19.125Z,11.06
2022-11-26T10:11:49.506Z,11.71
2022-11-26T10:14:38.000Z,11.76
2022-11-26T10:17:23.320Z,11.58
2022-11-26T10:19:52.825Z,11.20
2022-11-26T10:22:41.205Z,10.85
2022-11-26T10:25:16.398Z,10.84
2022-11-26T10:27:43.281Z,11.58
2022-11-26T10:30:17.224Z,11.62
2022-11-26T10:32:45.863Z,11.47
2022-11-26T10:35:20.027Z,10.59
2022-11-26T10:37:46.913Z,9.89
2022-11-26T10:40:19.757Z,10.84
2022-11-26T10:42:59.016Z,10.95
2022-11-26T10:45:27.976Z,10.93
2022-11-26T10:48:14.616Z,10.27
2022-11-26T10:50:49.286Z,10.88
2022-11-26T10:53:23.005Z,10.65
2022-11-26T10:55:51.028Z,10.62
2022-11-26T10:58:20.430Z,9.81
2022-11-26T11:00:50.285Z,10.13
2022-11-26T11:03:44.643Z,10.23
2022-11-26T11:06:13.201Z,10.26
2022-11-26T11:08:40.030Z,10.66
2022-11-26T11:11:18.454Z,10.44
2022-11-26T11:13:47.249Z,10.61
2022-11-26T11:16:16.217Z,10.68
2022-11-26T11:18:51.209Z,11.26
2022-11-26T11:21:19.011Z,10.55
2022-11-26T11:24:07.794Z,10.27
2022-11-26T11:26:39.455Z,10.50
2022-11-26T11:29:10.609Z,10.39
2022-11-26T11:31:45.322Z,10.17
2022-11-26T11:34:14.109Z,9.97
2022-11-26T11:36:40.903Z,10.17
2022-11-26T11:39:26.763Z,10.24
2022-11-26T11:41:53.594Z,10.60
2022-11-26T11:44:38.732Z,10.98
2022-11-26T11:47:13.230Z,10.90
2022-11-26T11:49:40.123Z,11.03
2022-11-26T11:52:20.111Z,10.83
2022-11-26T11:54:58.045Z,10.84
2022-11-26T11:57:36.962Z,10.52
2022-11-26T12:00:12.253Z,11.06
2022-11-26T12:02:57.532Z,10.58
2022-11-26T12:05:41.490Z,11.01
2022-11-26T12:08:14.232Z,11.08
2022-11-26T12:10:51.804Z,10.95
2022-11-26T12:13:21.574Z,11.44
2022-11-26T12:15:48.418Z,10.96
2022-11-26T12:18:15.231Z,11.17
2022-11-26T12:20:47.056Z,10.81
2022-11-26T12:23:32.340Z,10.57
2022-11-26T12:26:06.535Z,11.17
2022-11-26T12:28:45.782Z,10.49
2022-11-26T12:31:30.396Z,10.80
2022-11-26T12:34:07.119Z,11.21
2022-11-26T12:36:40.141Z,11.37
2022-11-26T12:39:18.883Z,11.82
2022-11-26T12:42:12.052Z,11.16
2022-11-26T12:44:43.914Z,10.94
2022-11-26T12:47:21.094Z,11.17
2022-11-26T12:50:06.774Z,12.10
2022-11-26T12:52:39.850Z,11.77
2022-11-26T12:55:14.313Z,12.16
2022-11-26T12:58:13.651Z,11.90
2022-11-26T13:00:40.756Z,11.99
2022-11-26T13:03:13.894Z,11.95
2022-11-26T13:05:52.190Z,12.32
2022-11-26T13:08:26.952Z,12.71
2022-11-26T13:11:07.187Z,11.31
2022-11-26T13:13:58.936Z,11.36
2022-11-26T13:16:25.710Z,11.76
2022-11-26T13:19:02.677Z,12.64
2022-11-26T13:21:46.414Z,11.81
2022-11-26T13:24:18.555Z,12.06
2022-11-26T13:27:18.242Z,12.26
2022-11-26T13:29:58.209Z,12.23
2022-11-26T13:32:44.635Z,12.33
2022-11-26T13:35:14.533Z,11.59
2022-11-26T13:37:50.580Z,12.25
2022-11-26T13:40:29.290Z,12.14
2022-11-26T13:43:08.388Z,11.83
2022-11-26T13:45:54.007Z,11.30
2022-11-26T13:48:27.711Z,11.76
2022-11-26T13:50:59.815Z,11.90
2022-11-26T13:53:34.997Z,11.65
2022-11-26T13:56:07.727Z,10.80
2022-11-26T13:58:46.200Z,10.84
2022-11-26T14:01:37.432Z,11.82
2022-11-26T14:04:07.973Z,11.58
2022-11-26T14:06:35.231Z,11.35
2022-11-26T14:09:02.384Z,11.63
2022-11-26T14:11:41.113Z,11.80
2022-11-26T14:14:26.087Z,12.11
2022-11-26T14:17:02.503Z,12.65
2022-11-26T14:19:41.672Z,12.86
2022-11-26T14:22:28.741Z,12.82
2022-11-26T14:24:57.042Z,12.42
2022-11-26T14:27:29.198Z,12.56
2022-11-26T14:30:02.030Z,12.71
2022-11-26T14:32:31.622Z,12.43
2022-11-26T14:34:58.487Z,12.94
2022-11-26T14:37:27.099Z,12.77
2022-11-26T14:40:09.827Z,13.07
2022-11-26T14:42:36.623Z,13.01
2022-11-26T14:45:16.522Z,13.19
2022-11-26T14:47:48.117Z,13.23
2022-11-26T14:50:16.796Z,12.98
2022-11-26T14:52:45.007Z,12.63
2022-11-26T14:55:24.137Z,13.06
2022-11-26T14:57:54.571Z,13.08
2022-11-26T15:00:23.607Z,13.09
2022-11-26T15:02:50.564Z,12.96
2022-11-26T15:05:20.191Z,13.12
2022-11-26T15:07:47.966Z,13.14
2022-11-26T15:10:14.739Z,13.12
2022-11-26T15:12:42.712Z,13.14
2022-11-26T15:15:13.617Z,13.01
2022-11-26T15:17:43.586Z,12.87
2022-11-26T15:20:18.710Z,12.97
2022-11-26T15:22:53.670Z,13.01
2022-11-26T15:25:34.228Z,13.02
2022-11-26T15:28:16.888Z,13.03
2022-11-26T15:30:53.221Z,13.00
2022-11-26T15:33:20.520Z,13.04
2022-11-26T15:35:50.687Z,13.00
2022-11-26T15:38:18.498Z,12.94
2022-11-26T15:40:50.351Z,12.89
2022-11-26T15:43:21.233Z,12.78
2022-11-26T15:45:48.754Z,12.72
2022-11-26T15:48:28.037Z,12.74
2022-11-26T15:51:04.198Z,12.70
2022-11-26T15:53:39.062Z,12.65
2022-11-26T15:56:06.127Z,12.54
2022-11-26T15:58:36.357Z,12.50
2022-11-26T16:01:04.999Z,12.49
2022-11-26T16:03:34.477Z,12.38
2022-11-26T16:06:01.568Z,12.38
2022-11-26T16:08:32.629Z,12.34
2022-11-26T16:11:09.707Z,12.26
2022-11-26T16:13:36.489Z,12.26
2022-11-26T16:16:08.671Z,12.09
2022-11-26T16:18:40.035Z,12.01
2022-11-26T16:21:06.788Z,11.92
2022-11-26T16:23:33.538Z,11.91
2022-11-26T16:26:07.636Z,11.89
2022-11-26T16:28:54.764Z,11.72
2022-11-26T16:31:21.931Z,11.72
2022-11-26T16:33:50.835Z,11.68
2022-11-26T16:36:19.379Z,11.69
2022-11-26T16:38:46.771Z,11.49
2022-11-26T16:41:17.053Z,11.49
2022-11-26T16:43:44.759Z,11.51
2022-11-26T16:46:13.558Z,11.53
2022-11-26T16:48:41.162Z,11.45
2022-11-26T16:51:07.834Z,11.40
2022-11-26T16:53:34.763Z,11.43
2022-11-26T16:56:01.680Z,11.04
2022-11-26T16:58:29.724Z,11.13
2022-11-26T17:00:57.007Z,11.05
2022-11-26T17:03:24.638Z,11.11
2022-11-26T17:05:56.594Z,11.13
2022-11-26T17:08:23.460Z,11.11
2022-11-26T17:10:51.435Z,11.03
2022-11-26T17:13:18.476Z,11.04
2022-11-26T17:15:45.223Z,10.98
2022-11-26T17:18:22.909Z,10.98
2022-11-26T17:20:50.812Z,10.97
2022-11-26T17:23:18.710Z,10.98
2022-11-26T17:25:46.720Z,10.91
2022-11-26T17:28:14.041Z,10.94
2022-11-26T17:30:41.455Z,10.90
2022-11-26T17:33:08.830Z,10.96
2022-11-26T17:35:36.066Z,10.44
2022-11-26T17:38:03.881Z,10.53
2022-11-26T17:40:30.867Z,10.33
2022-11-26T17:42:57.747Z,10.61
2022-11-26T17:45:24.542Z,10.64
2022-11-26T17:47:51.474Z,10.45
2022-11-26T17:50:22.307Z,10.41
2022-11-26T17:52:55.031Z,10.33
2022-11-26T17:55:23.469Z,10.22
2022-11-26T17:57:50.719Z,10.15
2022-11-26T18:00:20.017Z,10.11
2022-11-26T18:02:47.029Z,10.04
2022-11-26T18:05:14.504Z,10.02
2022-11-26T18:07:42.185Z,9.86
2022-11-26T18:10:16.050Z,10.00
2022-11-26T18:12:43.513Z,10.03
2022-11-26T18:15:16.762Z,10.10
2022-11-26T18:17:48.469Z,10.03
2022-11-26T18:20:15.838Z,9.77
2022-11-26T18:22:42.739Z,9.95
2022-11-26T18:25:09.691Z,10.00
2022-11-26T18:27:36.416Z,10.05
2022-11-26T18:30:03.975Z,10.05
2022-11-26T18:32:30.761Z,9.72
2022-11-26T18:34:57.559Z,9.75
2022-11-26T18:37:24.369Z,9.98
2022-11-26T18:39:51.348Z,9.97
2022-11-26T18:45:09.995Z,10.09
2022-11-26T18:47:36.979Z,10.17
2022-11-26T18:50:03.888Z,10.15
2022-11-26T18:52:30.597Z,10.14
2022-11-26T18:54:57.350Z,10.11
2022-11-26T18:57:24.208Z,10.15
2022-11-26T18:59:51.688Z,10.13
2022-11-26T19:02:18.591Z,10.13
2022-11-26T19:04:46.034Z,10.05
2022-11-26T19:07:14.456Z,9.94
2022-11-26T19:09:43.075Z,9.99
2022-11-26T19:12:19.378Z,9.69
2022-11-26T19:14:46.178Z,9.81
2022-11-26T19:17:12.964Z,9.87
2022-11-26T19:19:39.917Z,9.59
2022-11-26T19:22:06.752Z,9.62
2022-11-26T19:24:33.466Z,9.58
2022-11-26T19:27:00.475Z,9.51
2022-11-26T19:29:27.231Z,9.45
2022-11-26T19:31:54.176Z,9.40
2022-11-26T19:34:20.967Z,9.38
2022-11-26T19:36:49.272Z,9.48
2022-11-26T19:39:16.804Z,9.45
2022-11-26T19:41:43.738Z,9.51
2022-11-26T19:44:10.586Z,9.67
2022-11-26T19:46:40.938Z,9.01
2022-11-26T19:49:09.736Z,9.02
2022-11-26T19:51:36.517Z,8.93
2022-11-26T19:54:03.901Z,8.83
2022-11-26T19:56:33.315Z,8.96
2022-11-26T19:59:02.960Z,8.64
2022-11-26T20:01:31.909Z,8.83
2022-11-26T20:04:00.092Z,8.66
2022-11-26T20:06:46.999Z,8.73
2022-11-26T20:09:34.371Z,8.54
2022-11-26T20:12:01.587Z,8.43
2022-11-26T20:14:28.315Z,8.50
2022-11-26T20:16:59.382Z,8.55
2022-11-26T20:19:31.513Z,8.58
2022-11-26T20:22:00.481Z,8.59
2022-11-26T20:24:27.266Z,8.51
2022-11-26T20:26:54.185Z,8.64
2022-11-26T20:29:22.263Z,8.37
2022-11-26T20:31:50.403Z,8.69
2022-11-26T20:34:18.506Z,8.80
2022-11-26T20:36:45.395Z,8.77
2022-11-26T20:39:19.601Z,8.83
2022-11-26T20:41:46.942Z,8.95
2022-11-26T20:44:14.383Z,8.92
2022-11-26T20:46:41.152Z,8.70
2022-11-26T20:49:08.261Z,8.70
2022-11-26T20:51:35.190Z,8.64
2022-11-26T20:54:02.346Z,8.81
2022-11-26T20:56:29.341Z,8.75
2022-11-26T20:58:57.554Z,8.77
2022-11-26T21:01:25.769Z,8.60
2022-11-26T21:03:52.920Z,8.70
2022-11-26T21:06:25.906Z,8.79
2022-11-26T21:08:57.639Z,8.79
2022-11-26T21:11:24.355Z,8.94
2022-11-26T21:13:51.142Z,8.73
2022-11-26T21:16:19.425Z,8.60
2022-11-26T21:18:46.871Z,8.29
2022-11-26T21:21:15.077Z,8.38
2022-11-26T21:23:42.732Z,7.59
2022-11-26T21:26:18.129Z,7.72
2022-11-26T21:28:44.986Z,8.08
2022-11-26T21:31:14.029Z,8.06
2022-11-26T21:33:41.252Z,7.84
2022-11-26T21:36:09.144Z,8.05
2022-11-26T21:38:36.926Z,7.60
2022-11-26T21:41:22.578Z,7.65
2022-11-26T21:43:49.655Z,7.68
2022-11-26T21:46:18.122Z,7.56
2022-11-26T21:48:45.247Z,7.61
2022-11-26T21:51:13.906Z,7.83
2022-11-26T21:53:40.876Z,7.35
2022-11-26T21:56:07.758Z,7.33
2022-11-26T21:58:36.122Z,7.41
2022-11-26T22:01:09.442Z,7.51
2022-11-26T22:03:36.296Z,7.59
2022-11-26T22:06:03.311Z,7.47
2022-11-26T22:08:30.109Z,7.99
2022-11-26T22:10:57.022Z,8.25
2022-11-26T22:13:23.959Z,8.24
2022-11-26T22:15:51.130Z,8.24
2022-11-26T22:18:18.016Z,8.08
2022-11-26T22:20:52.053Z,8.38
2022-11-26T22:23:19.230Z,8.30
2022-11-26T22:25:46.724Z,8.22
2022-11-26T22:28:13.393Z,7.97
2022-11-26T22:30:40.444Z,7.99
2022-11-26T22:33:07.392Z,7.84
2022-11-26T22:35:35.634Z,7.91
2022-11-26T22:38:02.346Z,8.04
2022-11-26T22:40:29.235Z,7.84
2022-11-26T22:42:57.028Z,7.64
2022-11-26T22:45:23.711Z,7.70
2022-11-26T22:47:52.857Z,7.84
2022-11-26T22:50:19.872Z,7.54
2022-11-26T22:52:46.506Z,7.42
2022-11-26T22:55:13.225Z,7.99
2022-11-26T22:57:40.204Z,8.08
2022-11-26T23:00:09.737Z,7.90
2022-11-26T23:02:36.522Z,7.83
2022-11-26T23:05:03.380Z,7.68
2022-11-26T23:07:30.137Z,7.63
2022-11-26T23:09:56.885Z,7.53
2022-11-26T23:12:23.511Z,8.01
2022-11-26T23:14:50.302Z,7.90
2022-11-26T23:17:17.123Z,7.81
2022-11-26T23:19:43.850Z,7.67
2022-11-26T23:22:10.519Z,8.08
2022-11-26T23:24:37.231Z,7.81
2022-11-26T23:27:04.103Z,7.58
2022-11-26T23:29:30.913Z,7.57
2022-11-26T23:31:58.463Z,7.92
2022-11-26T23:34:25.265Z,7.81
2022-11-26T23:36:52.034Z,7.78
2022-11-26T23:39:19.198Z,7.44
2022-11-26T23:41:46.338Z,7.67
2022-11-26T23:44:13.047Z,7.65
2022-11-26T23:46:40.204Z,7.72
2022-11-26T23:49:07.015Z,7.82
2022-11-26T23:51:34.342Z,7.78
2022-11-26T23:54:01.025Z,7.53
2022-11-26T23:56:29.694Z,7.30
2022-11-26T23:58:57.906Z,7.27
